createdAt,value
2018-09-17T00:00:03.574Z,0.00
2018-09-17T00:01:03.561Z,0.00
2018-09-17T00:02:03.558Z,0.00
2018-09-17T00:03:03.525Z,0.00
2018-09-17T00:04:03.515Z,0.00
2018-09-17T00:05:03.493Z,0.00
2018-09-17T00:06:03.477Z,0.00
2018-09-17T00:07:03.477Z,0.00
2018-09-17T00:08:03.445Z,0.00
2018-09-17T00:09:03.445Z,0.00
2018-09-17T00:10:03.412Z,0.00
2018-09-17T00:11:03.397Z,0.00
2018-09-17T00:12:03.378Z,0.00
2018-09-17T00:13:03.362Z,0.00
2018-09-17T00:14:03.362Z,0.00
2018-09-17T00:15:03.327Z,0.00
2018-09-17T00:16:03.309Z,0.00
2018-09-17T00:17:03.295Z,0.00
2018-09-17T00:18:03.277Z,0.00
2018-09-17T00:19:03.279Z,0.00
2018-09-17T00:20:03.260Z,0.00
2018-09-17T00:21:03.231Z,0.00
2018-09-17T00:22:03.212Z,0.00
2018-09-17T00:23:03.193Z,0.00
2018-09-17T00:24:03.194Z,0.00
2018-09-17T00:25:03.165Z,0.00
2018-09-17T00:26:03.150Z,0.00
2018-09-17T00:27:03.129Z,0.00
2018-09-17T00:28:03.109Z,0.00
2018-09-17T00:29:03.093Z,0.00
2018-09-17T00:30:03.093Z,0.00
2018-09-17T00:31:03.077Z,0.00
2018-09-17T00:32:03.045Z,0.00
2018-09-17T00:33:03.029Z,0.00
2018-09-17T00:34:03.008Z,0.00
2018-09-17T00:35:03.016Z,0.00
2018-09-17T00:36:02.997Z,0.00
2018-09-17T00:37:02.968Z,0.00
2018-09-17T00:38:02.946Z,0.00
2018-09-17T00:39:02.927Z,0.00
2018-09-17T00:40:02.933Z,0.00
2018-09-17T00:41:02.912Z,0.00
2018-09-17T00:42:02.878Z,0.00
2018-09-17T00:43:02.909Z,0.00
2018-09-17T00:44:02.848Z,0.00
2018-09-17T00:45:02.831Z,0.00
2018-09-17T00:46:02.822Z,0.00
2018-09-17T00:47:02.813Z,0.00
2018-09-17T00:48:02.774Z,0.00
2018-09-17T00:49:02.761Z,0.00
2018-09-17T00:50:02.743Z,0.00
2018-09-17T00:51:02.729Z,0.00
2018-09-17T00:52:02.727Z,0.00
2018-09-17T00:53:02.690Z,0.00
2018-09-17T00:54:02.679Z,0.00
2018-09-17T00:55:02.676Z,0.00
2018-09-17T00:56:02.646Z,0.00
2018-09-17T00:57:02.644Z,0.00
2018-09-17T00:58:02.646Z,0.00
2018-09-17T00:59:02.590Z,0.00
2018-09-17T01:00:02.577Z,0.00
2018-09-17T01:01:02.558Z,0.00
2018-09-17T01:02:02.542Z,0.00
2018-09-17T01:03:02.528Z,0.00
2018-09-17T01:04:02.522Z,0.00
2018-09-17T01:05:02.509Z,0.00
2018-09-17T01:06:02.475Z,0.00
2018-09-17T01:07:02.461Z,0.00
2018-09-17T01:08:02.442Z,0.00
2018-09-17T01:09:02.442Z,0.00
2018-09-17T01:10:02.423Z,0.00
2018-09-17T01:11:02.389Z,0.00
2018-09-17T01:12:02.376Z,0.00
2018-09-17T01:13:02.355Z,0.00
2018-09-17T01:14:02.340Z,0.00
2018-09-17T01:15:02.352Z,0.00
2018-09-17T01:16:02.305Z,0.00
2018-09-17T01:17:02.293Z,0.00
2018-09-17T01:18:02.273Z,0.00
2018-09-17T01:19:02.256Z,0.00
2018-09-17T01:20:02.238Z,0.00
2018-09-17T01:21:02.240Z,0.00
2018-09-17T01:22:02.207Z,0.00
2018-09-17T01:23:02.190Z,0.00
2018-09-17T01:24:02.171Z,0.00
2018-09-17T01:25:02.152Z,0.00
2018-09-17T01:26:02.149Z,0.00
2018-09-17T01:27:02.120Z,0.00
2018-09-17T01:28:02.104Z,0.00
2018-09-17T01:29:02.088Z,0.00
2018-09-17T01:30:02.075Z,0.00
2018-09-17T01:31:02.069Z,0.00
2018-09-17T01:32:02.037Z,0.00
2018-09-17T01:33:02.024Z,0.00
2018-09-17T01:34:02.005Z,0.00
2018-09-17T01:35:02.011Z,0.00
2018-09-17T01:36:01.989Z,0.00
2018-09-17T01:37:01.966Z,0.00
2018-09-17T01:38:01.946Z,0.00
2018-09-17T01:39:01.920Z,0.00
2018-09-17T01:40:01.902Z,0.00
2018-09-17T01:41:01.889Z,0.00
2018-09-17T01:42:01.880Z,0.00
2018-09-17T01:43:01.849Z,0.00
2018-09-17T01:44:01.836Z,0.00
2018-09-17T01:45:01.825Z,0.00
2018-09-17T01:46:01.800Z,0.00
2018-09-17T01:47:01.800Z,0.00
2018-09-17T01:48:01.765Z,0.00
2018-09-17T01:49:01.752Z,0.00
2018-09-17T01:50:01.736Z,0.00
2018-09-17T01:51:01.716Z,0.00
2018-09-17T01:52:01.702Z,0.00
2018-09-17T01:53:01.697Z,0.00
2018-09-17T01:54:01.673Z,0.00
2018-09-17T01:55:01.644Z,0.00
2018-09-17T01:56:01.633Z,0.00
2018-09-17T01:57:01.610Z,0.00
2018-09-17T01:58:01.616Z,0.00
2018-09-17T01:59:01.584Z,0.00
2018-09-17T02:00:01.562Z,0.00
2018-09-17T02:01:01.546Z,0.00
2018-09-17T02:02:01.546Z,0.00
2018-09-17T02:03:01.526Z,0.00
2018-09-17T02:04:01.499Z,0.00
2018-09-17T02:05:01.483Z,0.00
2018-09-17T02:06:01.458Z,0.00
2018-09-17T02:07:01.446Z,0.00
2018-09-17T02:08:01.496Z,0.00
2018-09-17T02:09:01.415Z,0.00
2018-09-17T02:10:01.409Z,0.00
2018-09-17T02:11:01.392Z,0.00
2018-09-17T02:12:01.360Z,0.00
2018-09-17T02:13:01.338Z,0.00
2018-09-17T02:14:01.342Z,0.00
2018-09-17T02:15:01.303Z,0.00
2018-09-17T02:16:01.288Z,0.00
2018-09-17T02:17:01.272Z,0.00
2018-09-17T02:18:01.258Z,0.00
2018-09-17T02:19:01.252Z,0.00
2018-09-17T02:20:01.217Z,0.00
2018-09-17T02:21:01.202Z,0.00
2018-09-17T02:22:01.182Z,0.00
2018-09-17T02:23:01.174Z,0.00
2018-09-17T02:24:01.153Z,0.00
2018-09-17T02:25:22.144Z,0.00
2018-09-17T02:26:01.116Z,0.00
2018-09-17T02:27:01.115Z,0.00
2018-09-17T02:28:01.081Z,0.00
2018-09-17T02:29:01.078Z,0.00
2018-09-17T02:30:01.043Z,0.00
2018-09-17T02:31:01.038Z,0.00
2018-09-17T02:32:01.027Z,0.00
2018-09-17T02:33:00.992Z,0.00
2018-09-17T02:34:00.974Z,0.00
2018-09-17T02:35:00.960Z,0.00
2018-09-17T02:36:00.944Z,0.00
2018-09-17T02:37:00.944Z,0.00
2018-09-17T02:38:00.912Z,0.00
2018-09-17T02:39:00.889Z,0.00
2018-09-17T02:40:00.886Z,0.00
2018-09-17T02:41:00.856Z,0.00
2018-09-17T02:42:00.833Z,0.00
2018-09-17T02:43:00.833Z,0.00
2018-09-17T02:44:00.802Z,0.00
2018-09-17T02:45:00.820Z,0.00
2018-09-17T02:46:00.767Z,0.00
2018-09-17T02:47:00.749Z,0.00
2018-09-17T02:48:00.732Z,0.00
2018-09-17T02:49:00.716Z,0.00
2018-09-17T02:50:00.712Z,0.00
2018-09-17T02:51:00.698Z,0.00
2018-09-17T02:52:00.660Z,0.00
2018-09-17T02:53:00.643Z,0.00
2018-09-17T02:54:00.631Z,0.00
2018-09-17T02:55:00.612Z,0.00
2018-09-17T02:56:00.605Z,0.00
2018-09-17T02:57:00.580Z,0.00
2018-09-17T02:58:00.559Z,0.00
2018-09-17T02:59:00.541Z,0.00
2018-09-17T03:00:00.528Z,0.00
2018-09-17T03:01:00.536Z,0.00
2018-09-17T03:02:00.493Z,0.00
2018-09-17T03:03:00.474Z,0.00
2018-09-17T03:04:00.460Z,0.00
2018-09-17T03:05:00.441Z,0.00
2018-09-17T03:06:00.422Z,0.00
2018-09-17T03:07:00.421Z,0.00
2018-09-17T03:08:00.387Z,0.00
2018-09-17T03:09:00.371Z,0.00
2018-09-17T03:10:00.354Z,0.00
2018-09-17T03:11:00.338Z,0.00
2018-09-17T03:12:00.329Z,0.00
2018-09-17T03:13:00.304Z,0.00
2018-09-17T03:14:00.284Z,0.00
2018-09-17T03:15:00.264Z,0.00
2018-09-17T03:16:00.252Z,0.00
2018-09-17T03:17:00.248Z,0.00
2018-09-17T03:18:00.230Z,0.00
2018-09-17T03:19:00.203Z,0.00
2018-09-17T03:20:00.182Z,0.00
2018-09-17T03:21:00.163Z,0.00
2018-09-17T03:22:00.181Z,0.00
2018-09-17T03:23:00.143Z,0.00
2018-09-17T03:24:00.112Z,0.00
2018-09-17T03:25:00.096Z,0.00
2018-09-17T03:26:00.081Z,0.00
2018-09-17T03:27:00.061Z,0.00
2018-09-17T03:28:00.057Z,0.00
2018-09-17T03:29:00.028Z,0.00
2018-09-17T03:30:00.010Z,0.00
2018-09-17T03:30:59.991Z,0.00
2018-09-17T03:31:59.974Z,0.00
2018-09-17T03:32:59.990Z,0.00
2018-09-17T03:33:59.935Z,0.00
2018-09-17T03:34:59.922Z,0.00
2018-09-17T03:35:59.908Z,0.00
2018-09-17T03:36:59.890Z,0.00
2018-09-17T03:37:59.873Z,0.00
2018-09-17T03:38:59.871Z,0.00
2018-09-17T03:39:59.836Z,0.00
2018-09-17T03:40:59.822Z,0.00
2018-09-17T03:41:59.804Z,0.00
2018-09-17T03:42:59.799Z,0.00
2018-09-17T03:43:59.784Z,0.00
2018-09-17T03:44:59.749Z,0.00
2018-09-17T03:45:59.734Z,0.00
2018-09-17T03:46:59.713Z,0.00
2018-09-17T03:47:59.697Z,0.00
2018-09-17T03:48:59.693Z,0.00
2018-09-17T03:49:59.677Z,0.00
2018-09-17T03:50:59.644Z,0.00
2018-09-17T03:51:59.626Z,0.00
2018-09-17T03:52:59.610Z,0.00
2018-09-17T03:53:59.597Z,0.00
2018-09-17T03:54:59.588Z,0.00
2018-09-17T03:55:59.556Z,0.00
2018-09-17T03:56:59.543Z,0.00
2018-09-17T03:57:59.521Z,0.00
2018-09-17T03:58:59.503Z,0.00
2018-09-17T03:59:59.503Z,0.00
2018-09-17T04:00:59.471Z,0.00
2018-09-17T04:01:59.449Z,0.00
2018-09-17T04:02:59.435Z,0.00
2018-09-17T04:03:59.417Z,0.00
2018-09-17T04:04:59.405Z,0.00
2018-09-17T04:05:59.399Z,0.00
2018-09-17T04:06:59.364Z,0.00
2018-09-17T04:07:59.347Z,0.00
2018-09-17T04:08:59.328Z,0.00
2018-09-17T04:09:59.315Z,0.00
2018-09-17T04:10:59.296Z,0.00
2018-09-17T04:11:59.294Z,0.00
2018-09-17T04:12:59.258Z,0.00
2018-09-17T04:13:59.242Z,0.00
2018-09-17T04:14:59.240Z,0.00
2018-09-17T04:15:59.209Z,0.00
2018-09-17T04:16:59.191Z,0.00
2018-09-17T04:17:59.173Z,0.00
2018-09-17T04:18:59.158Z,0.00
2018-09-17T04:19:59.135Z,0.00
2018-09-17T04:20:59.138Z,0.00
2018-09-17T04:21:59.119Z,0.00
2018-09-17T04:22:59.090Z,0.00
2018-09-17T04:23:59.071Z,0.00
2018-09-17T04:24:59.054Z,0.00
2018-09-17T04:25:59.035Z,0.00
2018-09-17T04:26:59.033Z,0.00
2018-09-17T04:27:59.016Z,0.00
2018-09-17T04:28:58.984Z,0.00
2018-09-17T04:29:58.981Z,0.00
2018-09-17T04:30:58.978Z,0.00
2018-09-17T04:31:58.931Z,0.00
2018-09-17T04:32:58.943Z,0.00
2018-09-17T04:33:58.893Z,0.00
2018-09-17T04:34:58.893Z,0.00
2018-09-17T04:35:58.861Z,0.00
2018-09-17T04:36:58.841Z,0.00
2018-09-17T04:37:58.826Z,0.00
2018-09-17T04:38:58.812Z,0.00
2018-09-17T04:39:58.806Z,0.00
2018-09-17T04:40:58.774Z,0.00
2018-09-17T04:41:58.758Z,0.00
2018-09-17T04:42:58.743Z,0.00
2018-09-17T04:43:58.725Z,0.00
2018-09-17T04:44:58.726Z,0.00
2018-09-17T04:45:58.703Z,0.00
2018-09-17T04:46:58.687Z,0.00
2018-09-17T04:47:58.673Z,0.00
2018-09-17T04:48:58.636Z,0.00
2018-09-17T04:49:58.632Z,0.00
2018-09-17T04:50:58.603Z,0.00
2018-09-17T04:51:58.587Z,0.00
2018-09-17T04:52:58.565Z,0.00
2018-09-17T04:53:58.565Z,0.00
2018-09-17T04:54:58.556Z,0.00
2018-09-17T04:55:58.884Z,0.00
2018-09-17T04:56:58.497Z,0.00
2018-09-17T04:57:58.480Z,0.00
2018-09-17T04:58:58.464Z,0.00
2018-09-17T04:59:58.447Z,0.00
2018-09-17T05:00:58.445Z,0.00
2018-09-17T05:01:58.413Z,0.00
2018-09-17T05:02:58.391Z,0.00
2018-09-17T05:03:58.372Z,0.00
2018-09-17T05:04:58.360Z,0.00
2018-09-17T05:05:58.344Z,0.00
2018-09-17T05:06:58.340Z,0.00
2018-09-17T05:07:58.310Z,0.00
2018-09-17T05:08:58.288Z,0.00
2018-09-17T05:09:58.273Z,0.00
2018-09-17T05:10:58.254Z,0.00
2018-09-17T05:11:58.257Z,0.00
2018-09-17T05:12:58.303Z,0.00
2018-09-17T05:13:58.205Z,0.00
2018-09-17T05:14:58.192Z,0.00
2018-09-17T05:15:58.187Z,0.00
2018-09-17T05:16:58.157Z,0.00
2018-09-17T05:17:58.153Z,0.00
2018-09-17T05:18:58.123Z,0.00
2018-09-17T05:19:58.200Z,0.00
2018-09-17T05:20:58.084Z,5.63
2018-09-17T05:21:58.092Z,5.63
2018-09-17T05:22:58.049Z,5.63
2018-09-17T05:23:58.036Z,5.63
2018-09-17T05:24:58.030Z,5.63
2018-09-17T05:25:57.998Z,5.63
2018-09-17T05:26:57.998Z,5.63
2018-09-17T05:27:57.982Z,5.63
2018-09-17T05:28:57.963Z,5.63
2018-09-17T05:29:57.931Z,5.63
2018-09-17T05:30:57.915Z,5.63
2018-09-17T05:31:57.898Z,5.63
2018-09-17T05:32:57.896Z,5.63
2018-09-17T05:33:57.937Z,5.63
2018-09-17T05:34:57.899Z,11.25
2018-09-17T05:35:57.829Z,11.25
2018-09-17T05:36:57.813Z,11.25
2018-09-17T05:37:57.797Z,11.25
2018-09-17T05:38:57.775Z,11.25
2018-09-17T05:39:57.784Z,11.25
2018-09-17T05:40:57.746Z,11.25
2018-09-17T05:41:57.727Z,11.25
2018-09-17T05:42:57.711Z,11.25
2018-09-17T05:43:57.695Z,11.25
2018-09-17T05:44:57.692Z,11.25
2018-09-17T05:45:57.660Z,11.25
2018-09-17T05:46:57.644Z,16.88
2018-09-17T05:47:57.635Z,16.88
2018-09-17T05:48:57.610Z,16.88
2018-09-17T05:49:57.606Z,16.88
2018-09-17T05:50:57.590Z,16.88
2018-09-17T05:51:57.574Z,16.88
2018-09-17T05:52:57.542Z,16.88
2018-09-17T05:53:57.551Z,16.88
2018-09-17T05:54:57.517Z,16.88
2018-09-17T05:55:57.507Z,16.88
2018-09-17T05:56:57.492Z,22.50
2018-09-17T05:57:57.454Z,22.50
2018-09-17T05:58:57.440Z,22.50
2018-09-17T05:59:57.421Z,22.50
2018-09-17T06:00:57.419Z,22.50
2018-09-17T06:01:57.410Z,22.50
2018-09-17T06:02:57.372Z,22.50
2018-09-17T06:03:57.354Z,22.50
2018-09-17T06:04:57.338Z,22.50
2018-09-17T06:05:57.340Z,22.50
2018-09-17T06:06:57.345Z,22.50
2018-09-17T06:07:57.293Z,28.13
2018-09-17T06:08:57.274Z,28.13
2018-09-17T06:09:57.255Z,28.13
2018-09-17T06:10:57.265Z,28.13
2018-09-17T06:11:57.311Z,28.13
2018-09-17T06:12:57.206Z,28.13
2018-09-17T06:13:57.194Z,28.13
2018-09-17T06:14:57.181Z,28.13
2018-09-17T06:15:57.149Z,28.13
2018-09-17T06:16:57.149Z,28.13
2018-09-17T06:17:57.133Z,28.13
2018-09-17T06:18:57.099Z,33.75
2018-09-17T06:19:57.088Z,33.75
2018-09-17T06:20:57.069Z,33.75
2018-09-17T06:21:57.048Z,33.75
2018-09-17T06:22:57.058Z,33.75
2018-09-17T06:23:57.028Z,33.75
2018-09-17T06:24:56.997Z,33.75
2018-09-17T06:25:56.981Z,33.75
2018-09-17T06:26:56.965Z,33.75
2018-09-17T06:27:56.975Z,33.75
2018-09-17T06:28:56.930Z,33.75
2018-09-17T06:29:56.916Z,33.75
2018-09-17T06:30:56.900Z,33.75
2018-09-17T06:31:56.884Z,33.75
2018-09-17T06:32:56.871Z,33.75
2018-09-17T06:33:56.861Z,33.75
2018-09-17T06:34:56.833Z,33.75
2018-09-17T06:35:56.818Z,33.75
2018-09-17T06:37:56.783Z,39.38
2018-09-17T06:38:56.783Z,39.38
2018-09-17T06:39:56.756Z,39.38
2018-09-17T06:40:56.737Z,39.38
2018-09-17T06:41:56.718Z,39.38
2018-09-17T06:42:56.710Z,39.38
2018-09-17T06:43:56.702Z,39.38
2018-09-17T06:44:56.765Z,45.00
2018-09-17T06:45:56.652Z,45.00
2018-09-17T06:46:56.641Z,45.00
2018-09-17T06:47:56.622Z,45.00
2018-09-17T06:48:56.604Z,45.00
2018-09-17T06:49:56.603Z,45.00
2018-09-17T06:50:56.571Z,45.00
2018-09-17T06:51:56.552Z,45.00
2018-09-17T06:52:56.536Z,50.63
2018-09-17T06:54:17.533Z,50.63
2018-09-17T06:54:56.507Z,50.63
2018-09-17T06:55:56.492Z,50.63
2018-09-17T06:56:56.473Z,50.63
2018-09-17T06:57:56.457Z,50.63
2018-09-17T06:58:56.444Z,50.63
2018-09-17T06:59:56.441Z,50.63
2018-09-17T07:00:56.412Z,50.63
2018-09-17T07:01:56.396Z,56.25
2018-09-17T07:02:56.436Z,56.25
2018-09-17T07:03:56.363Z,56.25
2018-09-17T07:04:56.357Z,56.25
2018-09-17T07:05:56.325Z,56.25
2018-09-17T07:06:56.309Z,56.25
2018-09-17T07:07:56.293Z,56.25
2018-09-17T07:08:56.282Z,56.25
2018-09-17T07:09:56.277Z,56.25
2018-09-17T07:10:56.245Z,56.25
2018-09-17T07:11:56.248Z,56.25
2018-09-17T07:12:56.215Z,56.25
2018-09-17T07:13:56.197Z,56.25
2018-09-17T07:14:56.181Z,56.25
2018-09-17T07:15:56.165Z,56.25
2018-09-17T07:16:56.149Z,56.25
2018-09-17T07:17:56.162Z,56.25
2018-09-17T07:18:56.125Z,56.25
2018-09-17T07:19:56.104Z,50.63
2018-09-17T07:20:56.102Z,50.63
2018-09-17T07:21:56.068Z,50.63
2018-09-17T07:22:56.052Z,50.63
2018-09-17T07:23:56.037Z,56.25
2018-09-17T07:24:56.020Z,56.25
2018-09-17T07:25:56.022Z,56.25
2018-09-17T07:26:55.990Z,56.25
2018-09-17T07:27:55.988Z,56.25
2018-09-17T07:28:55.959Z,61.88
2018-09-17T07:29:55.940Z,61.88
2018-09-17T07:30:55.926Z,61.88
2018-09-17T07:31:55.910Z,61.88
2018-09-17T07:32:55.907Z,67.50
2018-09-17T07:33:55.880Z,67.50
2018-09-17T07:34:55.860Z,67.50
2018-09-17T07:35:55.848Z,67.50
2018-09-17T07:36:55.843Z,67.50
2018-09-17T07:37:55.813Z,73.13
2018-09-17T07:38:55.801Z,73.13
2018-09-17T07:39:55.798Z,73.13
2018-09-17T07:40:55.768Z,73.13
2018-09-17T07:41:55.756Z,73.13
2018-09-17T07:42:55.740Z,73.13
2018-09-17T07:43:55.726Z,78.75
2018-09-17T07:44:55.731Z,78.75
2018-09-17T07:45:55.691Z,78.75
2018-09-17T07:46:55.674Z,78.75
2018-09-17T07:47:55.733Z,78.75
2018-09-17T07:48:55.646Z,78.75
2018-09-17T07:49:55.646Z,78.75
2018-09-17T07:50:55.613Z,78.75
2018-09-17T07:51:57.511Z,84.38
2018-09-17T07:52:55.621Z,84.38
2018-09-17T07:53:55.566Z,90.00
2018-09-17T07:54:55.591Z,90.00
2018-09-17T07:55:55.537Z,90.00
2018-09-17T07:56:55.517Z,90.00
2018-09-17T07:57:55.512Z,95.63
2018-09-17T07:58:55.519Z,95.63
2018-09-17T07:59:55.475Z,101.25
2018-09-17T08:00:55.475Z,101.25
2018-09-17T08:01:55.444Z,101.25
2018-09-17T08:02:55.443Z,112.50
2018-09-17T08:03:55.415Z,112.50
2018-09-17T08:04:55.397Z,112.50
2018-09-17T08:05:55.395Z,118.13
2018-09-17T08:06:55.368Z,118.13
2018-09-17T08:07:55.608Z,123.75
2018-09-17T08:08:55.341Z,129.38
2018-09-17T08:09:55.320Z,129.38
2018-09-17T08:10:55.322Z,135.00
2018-09-17T08:11:55.294Z,140.63
2018-09-17T08:12:55.300Z,146.25
2018-09-17T08:13:55.268Z,146.25
2018-09-17T08:14:55.253Z,146.25
2018-09-17T08:15:55.236Z,146.25
2018-09-17T08:16:55.237Z,151.88
2018-09-17T08:17:55.207Z,151.88
2018-09-17T08:18:55.207Z,157.50
2018-09-17T08:19:55.197Z,157.50
2018-09-17T08:20:55.166Z,157.50
2018-09-17T08:21:55.147Z,163.13
2018-09-17T08:22:55.135Z,163.13
2018-09-17T08:23:55.124Z,163.13
2018-09-17T08:24:55.123Z,163.13
2018-09-17T08:25:55.095Z,163.13
2018-09-17T08:26:55.081Z,163.13
2018-09-17T08:27:55.064Z,163.13
2018-09-17T08:28:55.053Z,163.13
2018-09-17T08:29:55.050Z,157.50
2018-09-17T08:30:55.024Z,168.75
2018-09-17T08:31:55.015Z,168.75
2018-09-17T08:32:54.991Z,163.13
2018-09-17T08:33:54.983Z,163.13
2018-09-17T08:34:54.989Z,163.13
2018-09-17T08:35:54.959Z,163.13
2018-09-17T08:36:54.942Z,168.75
2018-09-17T08:37:54.930Z,168.75
2018-09-17T08:38:54.915Z,168.75
2018-09-17T08:39:54.902Z,174.38
2018-09-17T08:40:54.902Z,174.38
2018-09-17T08:41:54.873Z,180.00
2018-09-17T08:42:54.857Z,185.63
2018-09-17T08:43:54.844Z,185.63
2018-09-17T08:44:54.831Z,191.25
2018-09-17T08:45:54.835Z,191.25
2018-09-17T08:46:54.805Z,196.88
2018-09-17T08:47:54.796Z,202.50
2018-09-17T08:48:54.782Z,213.75
2018-09-17T08:49:54.763Z,230.63
2018-09-17T08:50:54.764Z,247.50
2018-09-17T08:51:54.738Z,292.50
2018-09-17T08:52:54.773Z,433.13
2018-09-17T08:53:54.711Z,652.50
2018-09-17T08:54:54.694Z,798.75
2018-09-17T08:55:54.703Z,843.75
2018-09-17T08:56:54.672Z,866.25
2018-09-17T08:57:54.657Z,894.38
2018-09-17T08:58:54.646Z,883.13
2018-09-17T08:59:54.633Z,995.63
2018-09-17T09:00:54.620Z,1001.25
2018-09-17T09:01:54.620Z,990.00
2018-09-17T09:02:54.596Z,1023.75
2018-09-17T09:03:54.603Z,1006.88
2018-09-17T09:04:54.586Z,978.75
2018-09-17T09:05:54.558Z,933.75
2018-09-17T09:06:54.557Z,928.13
2018-09-17T09:07:54.531Z,905.63
2018-09-17T09:08:54.515Z,888.75
2018-09-17T09:09:54.510Z,877.50
2018-09-17T09:10:54.490Z,871.88
2018-09-17T09:11:54.482Z,922.50
2018-09-17T09:12:54.484Z,922.50
2018-09-17T09:13:54.460Z,950.63
2018-09-17T09:14:54.448Z,973.13
2018-09-17T09:15:54.438Z,995.63
2018-09-17T09:16:54.423Z,1051.88
2018-09-17T09:17:54.413Z,1063.13
2018-09-17T09:18:54.418Z,1158.75
2018-09-17T09:19:54.396Z,1260.00
2018-09-17T09:20:54.379Z,1338.75
2018-09-17T09:21:54.368Z,1327.50
2018-09-17T09:22:54.377Z,1350.00
2018-09-17T09:23:54.353Z,1316.25
2018-09-17T09:24:54.348Z,1378.13
2018-09-17T09:25:54.349Z,1411.88
2018-09-17T09:26:54.324Z,1440.00
2018-09-17T09:27:54.330Z,1411.88
2018-09-17T09:28:54.308Z,1366.88
2018-09-17T09:29:54.295Z,1400.63
2018-09-17T09:30:54.306Z,1338.75
2018-09-17T09:31:54.282Z,1316.25
2018-09-17T09:32:54.289Z,1209.38
2018-09-17T09:33:54.276Z,1192.50
2018-09-17T09:34:54.256Z,1170.00
2018-09-17T09:36:15.263Z,1248.75
2018-09-17T09:36:54.259Z,1198.13
2018-09-17T09:37:54.231Z,1186.88
2018-09-17T09:38:54.247Z,1198.13
2018-09-17T09:39:54.219Z,1198.13
2018-09-17T09:40:54.235Z,1102.50
2018-09-17T09:41:54.203Z,1074.38
2018-09-17T09:42:54.197Z,1170.00
2018-09-17T09:43:54.190Z,1276.88
2018-09-17T09:44:54.183Z,1456.88
2018-09-17T09:45:54.177Z,1518.75
2018-09-17T09:46:54.191Z,1591.88
2018-09-17T09:47:54.164Z,1575.00
2018-09-17T09:48:54.155Z,1631.25
2018-09-17T09:49:54.164Z,1524.38
2018-09-17T09:50:54.145Z,1490.63
2018-09-17T09:51:54.140Z,1428.75
2018-09-17T09:52:54.149Z,1400.63
2018-09-17T09:53:54.128Z,1434.38
2018-09-17T09:54:54.135Z,1428.75
2018-09-17T09:55:54.114Z,1434.38
2018-09-17T09:56:54.108Z,1423.13
2018-09-17T09:57:54.121Z,1417.50
2018-09-17T09:58:54.098Z,1428.75
2018-09-17T09:59:54.109Z,1389.38
2018-09-17T10:00:54.095Z,1372.50
2018-09-17T10:01:54.082Z,1400.63
2018-09-17T10:02:54.077Z,1389.38
2018-09-17T10:03:54.073Z,1456.88
2018-09-17T10:04:54.088Z,1411.88
2018-09-17T10:05:54.076Z,1417.50
2018-09-17T10:06:54.056Z,1445.63
2018-09-17T10:07:54.076Z,1366.88
2018-09-17T10:08:54.051Z,1445.63
2018-09-17T10:09:54.064Z,1456.88
2018-09-17T10:10:54.038Z,1485.00
2018-09-17T10:11:54.034Z,1490.63
2018-09-17T10:12:54.038Z,1501.88
2018-09-17T10:13:54.028Z,1501.88
2018-09-17T10:14:54.065Z,1552.50
2018-09-17T10:15:54.015Z,1597.50
2018-09-17T10:16:54.012Z,1614.38
2018-09-17T10:17:54.009Z,1631.25
2018-09-17T10:18:54.002Z,1631.25
2018-09-17T10:19:53.999Z,1642.50
2018-09-17T10:20:54.009Z,1710.00
2018-09-17T10:21:53.993Z,1620.00
2018-09-17T10:22:54.006Z,1659.38
2018-09-17T10:23:53.990Z,1670.63
2018-09-17T10:24:53.983Z,1636.88
2018-09-17T10:25:53.996Z,1608.75
2018-09-17T10:26:53.996Z,1546.88
2018-09-17T10:27:53.973Z,1580.63
2018-09-17T10:28:53.971Z,1586.25
2018-09-17T10:29:54.014Z,1603.13
2018-09-17T10:30:53.964Z,1608.75
2018-09-17T10:31:53.961Z,1603.13
2018-09-17T10:32:53.971Z,1608.75
2018-09-17T10:33:53.958Z,1625.63
2018-09-17T10:34:53.951Z,1642.50
2018-09-17T10:35:53.951Z,1698.75
2018-09-17T10:36:53.948Z,1755.00
2018-09-17T10:37:53.971Z,1755.00
2018-09-17T10:38:53.938Z,1755.00
2018-09-17T10:39:53.939Z,1569.38
2018-09-17T10:40:53.936Z,1546.88
2018-09-17T10:41:53.934Z,1575.00
2018-09-17T10:42:53.949Z,1670.63
2018-09-17T10:43:53.930Z,1687.50
2018-09-17T10:44:53.928Z,1743.75
2018-09-17T10:45:53.922Z,1777.50
2018-09-17T10:46:53.962Z,1788.75
2018-09-17T10:48:14.935Z,1788.75
2018-09-17T10:48:53.915Z,1760.63
2018-09-17T10:49:53.912Z,1749.38
2018-09-17T10:50:53.909Z,1732.50
2018-09-17T10:51:53.906Z,1473.75
2018-09-17T10:52:53.919Z,1226.25
2018-09-17T10:53:53.917Z,1451.25
2018-09-17T10:54:53.902Z,1636.88
2018-09-17T10:55:53.897Z,1726.88
2018-09-17T10:56:53.893Z,1653.75
2018-09-17T10:57:53.890Z,1653.75
2018-09-17T10:58:53.906Z,1642.50
2018-09-17T10:59:53.887Z,1676.25
2018-09-17T11:00:53.883Z,1670.63
2018-09-17T11:01:53.881Z,1614.38
2018-09-17T11:02:53.881Z,1755.00
2018-09-17T11:03:53.881Z,1935.00
2018-09-17T11:04:53.895Z,1985.63
2018-09-17T11:05:53.877Z,2070.00
2018-09-17T11:06:53.872Z,2115.00
2018-09-17T11:07:53.868Z,2002.50
2018-09-17T11:08:53.884Z,1755.00
2018-09-17T11:09:53.884Z,1074.38
2018-09-17T11:10:53.862Z,1878.75
2018-09-17T11:11:53.861Z,1946.25
2018-09-17T11:12:53.858Z,1895.63
2018-09-17T11:13:53.874Z,1816.88
2018-09-17T11:14:53.855Z,1040.63
2018-09-17T11:15:53.859Z,1681.88
2018-09-17T11:16:53.852Z,945.00
2018-09-17T11:17:53.856Z,1636.88
2018-09-17T11:18:53.856Z,1828.13
2018-09-17T11:19:53.858Z,1546.88
2018-09-17T11:20:53.855Z,1760.63
2018-09-17T11:21:53.843Z,1546.88
2018-09-17T11:22:53.849Z,1850.63
2018-09-17T11:23:53.839Z,1895.63
2018-09-17T11:24:53.856Z,1929.38
2018-09-17T11:25:53.833Z,1411.88
2018-09-17T11:26:53.840Z,2070.00
2018-09-17T11:27:53.833Z,1935.00
2018-09-17T11:28:53.827Z,916.88
2018-09-17T11:29:53.840Z,1828.13
2018-09-17T11:30:53.827Z,1035.00
2018-09-17T11:31:53.833Z,933.75
2018-09-17T11:32:53.824Z,1468.13
2018-09-17T11:33:53.823Z,1861.88
2018-09-17T11:34:53.837Z,1698.75
2018-09-17T11:35:53.820Z,821.25
2018-09-17T11:36:53.824Z,585.00
2018-09-17T11:37:53.817Z,579.38
2018-09-17T11:38:53.830Z,1794.38
2018-09-17T11:39:53.833Z,1766.25
2018-09-17T11:40:53.841Z,1777.50
2018-09-17T11:41:53.813Z,1620.00
2018-09-17T11:42:53.811Z,1878.75
2018-09-17T11:43:53.811Z,585.00
2018-09-17T11:44:53.811Z,652.50
2018-09-17T11:45:53.821Z,1535.63
2018-09-17T11:46:53.814Z,551.25
2018-09-17T11:47:53.801Z,1586.25
2018-09-17T11:48:53.808Z,680.63
2018-09-17T11:49:53.801Z,1749.38
2018-09-17T11:50:53.817Z,540.00
2018-09-17T11:51:53.798Z,1513.13
2018-09-17T11:52:53.798Z,528.75
2018-09-17T11:53:53.837Z,1648.13
2018-09-17T11:54:53.792Z,1777.50
2018-09-17T11:55:53.815Z,1800.00
2018-09-17T11:56:53.796Z,579.38
2018-09-17T11:57:53.792Z,675.00
2018-09-17T11:58:53.789Z,973.13
2018-09-17T11:59:53.792Z,1620.00
2018-09-17T12:00:53.785Z,810.00
2018-09-17T12:01:53.843Z,1518.75
2018-09-17T12:02:53.788Z,770.63
2018-09-17T12:03:53.786Z,624.38
2018-09-17T12:04:53.779Z,523.13
2018-09-17T12:05:53.777Z,523.13
2018-09-17T12:06:53.811Z,562.50
2018-09-17T12:07:53.797Z,630.00
2018-09-17T12:08:53.773Z,2002.50
2018-09-17T12:09:53.770Z,1636.88
2018-09-17T12:10:53.775Z,2143.13
2018-09-17T12:11:53.789Z,1681.88
2018-09-17T12:12:53.770Z,1895.63
2018-09-17T12:13:53.767Z,630.00
2018-09-17T12:14:53.767Z,2238.75
2018-09-17T12:15:53.767Z,450.00
2018-09-17T12:16:53.780Z,461.25
2018-09-17T12:17:53.789Z,461.25
2018-09-17T12:18:53.774Z,478.13
2018-09-17T12:19:53.760Z,444.38
2018-09-17T12:20:53.760Z,433.13
2018-09-17T12:21:53.773Z,444.38
2018-09-17T12:22:53.771Z,427.50
2018-09-17T12:23:53.788Z,495.00
2018-09-17T12:24:53.751Z,2334.38
2018-09-17T12:25:53.773Z,433.13
2018-09-17T12:26:53.745Z,900.00
2018-09-17T12:27:53.767Z,1597.50
2018-09-17T12:28:53.764Z,2154.38
2018-09-17T12:29:53.741Z,2216.25
2018-09-17T12:30:53.761Z,1794.38
2018-09-17T12:31:53.737Z,523.13
2018-09-17T12:32:53.761Z,832.50
2018-09-17T12:33:53.782Z,1198.13
2018-09-17T12:34:53.748Z,956.25
2018-09-17T12:35:53.731Z,489.38
2018-09-17T12:36:53.731Z,343.13
2018-09-17T12:37:53.748Z,838.13
2018-09-17T12:38:53.722Z,354.38
2018-09-17T12:39:53.720Z,410.63
2018-09-17T12:40:53.724Z,1996.88
2018-09-17T12:41:53.714Z,1625.63
2018-09-17T12:42:53.714Z,1811.25
2018-09-17T12:43:53.723Z,1333.13
2018-09-17T12:45:14.717Z,793.13
2018-09-17T12:45:53.736Z,1136.25
2018-09-17T12:46:53.700Z,793.13
2018-09-17T12:47:53.695Z,821.25
2018-09-17T12:48:53.693Z,371.25